Nissho Maru No.18 — JL6369 — position and weather

sailwx.info

Track history (hours):
 
Tides and Currents Weather Stations Pressure Air Temp Water Temp Dewpoint Dewpoint Depression Visibility Wind Speed Wind Dir Waves Ship Positions

Nissho Maru No.18

Last reported at 2014-Dec-16 12:08 UTC. Time now 2014-Dec-18 12:28 UTC.
Position N 34°36' E 134°55'.

Length 65 m; draft 4 m.

Type: Tanker. MMSI: 431500465.

Date/timePositionNaut miles runAvg speedWind from/ knotsBaromVisibWave heightAir tempDewpointWater temp
2014-Dec-16 12:08N 34°36' E 134°55'5 6.8
2014-Dec-16 11:24N 34°37' E 135°01'7 7.8
2014-Dec-16 10:33N 34°36' E 135°09'9 9.1
2014-Dec-16 09:34N 34°36' E 135°20'5 4.9
2014-Dec-16 08:33N 34°34' E 135°26'0 0.0
2014-Dec-16 07:34N 34°34' E 135°26'0 0.0
2014-Dec-16 06:33N 34°34' E 135°26'2 0.6
2014-Dec-16 02:31N 34°36' E 135°23'12 9.0
2014-Dec-16 01:09N 34°35' E 135°08'  
2014-Dec-11 17:05N 34°42' E 134°47'5 8.8
2014-Dec-11 16:34N 34°38' E 134°51'10 9.6
2014-Dec-11 15:33N 34°37' E 135°02'9 9.0
2014-Dec-11 14:32N 34°28' E 135°03'1310.1
2014-Dec-11 13:15N 34°15' E 134°59'7 9.9
2014-Dec-11 12:34N 34°08' E 135°00'242 7.8
2014-Dec-10 05:30N 35°11' E 139°45'9 9.5
2014-Dec-10 04:33N 35°20' E 139°42'3 3.5
2014-Dec-10 03:33N 35°23' E 139°42'14 0.5
2014-Dec-08 22:18N 35°30' E 139°57'5 1.1
2014-Dec-08 17:33N 35°27' E 139°51'1010.3
2014-Dec-08 16:33N 35°19' E 139°44'243 8.4
2014-Dec-07 11:28N 34°15' E 134°59'9 9.5
2014-Dec-07 10:32N 34°24' E 135°00'10 9.9
2014-Dec-07 09:33N 34°34' E 135°02'8 7.8
2014-Dec-07 08:33N 34°37' E 134°54'8 1.5
2014-Dec-07 03:13N 34°41' E 134°46'7 9.1
2014-Dec-07 02:25N 34°37' E 134°53'910.9
2014-Dec-07 01:33N 34°35' E 135°04'1010.3
2014-Dec-07 00:33N 34°25' E 135°02'1110.8
2014-Dec-06 23:33N 34°15' E 134°60'1010.1
2014-Dec-06 22:33N 34°05' E 135°01'  
Track history (hours):
 
Tides and Currents Weather Stations Pressure Air Temp Water Temp Dewpoint Dewpoint Depression Visibility Wind Speed Wind Dir Waves Ship Positions

Nissho Maru No.18

Last reported at 2014-Dec-16 12:08 UTC. Time now 2014-Dec-18 12:28 UTC.
Position N 34°36' E 134°55'.

Length 65 m; draft 4 m.

Type: Tanker. MMSI: 431500465.

Date/timePositionNaut miles runAvg speedWind from/ knotsBaromVisibWave heightAir tempDewpointWater temp
2014-Dec-16 12:08N 34°36' E 134°55'5 6.8
2014-Dec-16 11:24N 34°37' E 135°01'7 7.8
2014-Dec-16 10:33N 34°36' E 135°09'9 9.1
2014-Dec-16 09:34N 34°36' E 135°20'5 4.9
2014-Dec-16 08:33N 34°34' E 135°26'0 0.0
2014-Dec-16 07:34N 34°34' E 135°26'0 0.0
2014-Dec-16 06:33N 34°34' E 135°26'2 0.6
2014-Dec-16 02:31N 34°36' E 135°23'12 9.0
2014-Dec-16 01:09N 34°35' E 135°08'  
2014-Dec-11 17:05N 34°42' E 134°47'5 8.8
2014-Dec-11 16:34N 34°38' E 134°51'10 9.6
2014-Dec-11 15:33N 34°37' E 135°02'9 9.0
2014-Dec-11 14:32N 34°28' E 135°03'1310.1
2014-Dec-11 13:15N 34°15' E 134°59'7 9.9
2014-Dec-11 12:34N 34°08' E 135°00'242 7.8
2014-Dec-10 05:30N 35°11' E 139°45'9 9.5
2014-Dec-10 04:33N 35°20' E 139°42'3 3.5
2014-Dec-10 03:33N 35°23' E 139°42'14 0.5
2014-Dec-08 22:18N 35°30' E 139°57'5 1.1
2014-Dec-08 17:33N 35°27' E 139°51'1010.3
2014-Dec-08 16:33N 35°19' E 139°44'243 8.4
2014-Dec-07 11:28N 34°15' E 134°59'9 9.5
2014-Dec-07 10:32N 34°24' E 135°00'10 9.9
2014-Dec-07 09:33N 34°34' E 135°02'8 7.8
2014-Dec-07 08:33N 34°37' E 134°54'8 1.5
2014-Dec-07 03:13N 34°41' E 134°46'7 9.1
2014-Dec-07 02:25N 34°37' E 134°53'910.9
2014-Dec-07 01:33N 34°35' E 135°04'1010.3
2014-Dec-07 00:33N 34°25' E 135°02'1110.8
2014-Dec-06 23:33N 34°15' E 134°60'1010.1
2014-Dec-06 22:33N 34°05' E 135°01'  

Dump ship's entire track history